createdAt,value
2023-03-01T00:01:22.546Z,14.43
2023-03-01T00:03:50.460Z,14.02
2023-03-01T00:06:18.330Z,14.18
2023-03-01T00:08:46.267Z,14.50
2023-03-01T00:11:28.734Z,14.25
2023-03-01T00:13:58.675Z,14.73
2023-03-01T00:16:29.743Z,13.65
2023-03-01T00:18:58.232Z,14.00
2023-03-01T00:21:26.136Z,14.65
2023-03-01T00:23:54.627Z,13.07
2023-03-01T00:26:23.768Z,14.05
2023-03-01T00:28:51.786Z,14.57
2023-03-01T00:31:21.671Z,13.40
2023-03-01T00:33:49.761Z,14.25
2023-03-01T00:36:17.610Z,14.55
2023-03-01T00:38:46.762Z,14.60
2023-03-01T00:41:16.842Z,14.50
2023-03-01T00:43:45.522Z,14.48
2023-03-01T00:46:21.434Z,13.95
2023-03-01T00:48:49.498Z,14.40
2023-03-01T00:51:24.533Z,14.52
2023-03-01T00:53:54.628Z,14.25
2023-03-01T00:56:22.668Z,14.43
2023-03-01T00:58:50.428Z,14.35
2023-03-01T01:01:21.061Z,15.38
2023-03-01T01:03:54.716Z,14.32
2023-03-01T01:06:24.766Z,14.80
2023-03-01T01:08:54.242Z,15.13
2023-03-01T01:11:23.186Z,15.13
2023-03-01T01:13:51.214Z,14.82
2023-03-01T01:16:20.324Z,14.65
2023-03-01T01:18:48.605Z,14.52
2023-03-01T01:21:19.947Z,15.23
2023-03-01T01:23:48.756Z,14.60
2023-03-01T01:26:20.202Z,15.20
2023-03-01T01:28:48.319Z,15.20
2023-03-01T01:31:16.697Z,14.40
2023-03-01T01:33:44.388Z,15.95
2023-03-01T01:36:12.946Z,14.50
2023-03-01T01:38:40.862Z,15.45
2023-03-01T01:41:08.567Z,15.20
2023-03-01T01:43:41.977Z,15.73
2023-03-01T01:46:28.472Z,15.88
2023-03-01T01:49:01.701Z,15.55
2023-03-01T01:51:39.592Z,15.88
2023-03-01T01:54:12.718Z,14.95
2023-03-01T01:56:45.136Z,15.45
2023-03-01T01:59:13.717Z,15.55
2023-03-01T02:01:41.291Z,16.15
2023-03-01T02:04:08.949Z,16.27
2023-03-01T02:06:49.207Z,14.73
2023-03-01T02:09:19.610Z,14.82
2023-03-01T02:11:48.959Z,15.13
2023-03-01T02:14:17.650Z,14.23
2023-03-01T02:16:45.748Z,14.85
2023-03-01T02:19:25.367Z,13.43
2023-03-01T02:22:14.742Z,13.48
2023-03-01T02:24:57.573Z,14.23
2023-03-01T02:27:30.072Z,14.07
2023-03-01T02:29:57.893Z,13.45
2023-03-01T02:32:26.284Z,13.30
2023-03-01T02:34:56.425Z,13.70
2023-03-01T02:37:27.378Z,12.70
2023-03-01T02:40:06.582Z,13.05
2023-03-01T02:43:06.931Z,12.55
2023-03-01T02:45:34.490Z,12.60
2023-03-01T02:55:24.435Z,11.93
2023-03-01T03:00:27.933Z,11.15
2023-03-01T03:02:58.268Z,11.98
2023-03-01T03:05:31.596Z,11.75
2023-03-01T03:08:01.293Z,12.00
2023-03-01T03:10:33.938Z,12.02
2023-03-01T03:13:08.741Z,12.27
2023-03-01T03:15:40.116Z,12.43
2023-03-01T03:18:10.574Z,12.50
2023-03-01T03:20:40.536Z,13.30
2023-03-01T03:23:08.560Z,13.00
2023-03-01T03:25:39.201Z,12.70
2023-03-01T03:28:11.099Z,12.63
2023-03-01T03:30:41.359Z,11.98
2023-03-01T03:33:13.024Z,13.07
2023-03-01T03:35:49.824Z,12.75
2023-03-01T03:38:20.229Z,13.30
2023-03-01T03:40:50.443Z,12.77
2023-03-01T03:43:23.989Z,12.85
2023-03-01T03:45:52.899Z,12.75
2023-03-01T03:48:20.960Z,13.50
2023-03-01T03:50:51.273Z,12.35
2023-03-01T03:53:19.565Z,13.15
2023-03-01T03:55:50.326Z,13.40
2023-03-01T03:58:20.900Z,12.13
2023-03-01T04:00:50.892Z,12.45
2023-03-01T04:03:20.912Z,12.38
2023-03-01T04:05:49.052Z,12.77
2023-03-01T04:08:16.764Z,12.75
2023-03-01T04:10:48.391Z,12.10
2023-03-01T04:13:20.796Z,12.77
2023-03-01T04:15:55.271Z,12.98
2023-03-01T04:18:26.337Z,12.27
2023-03-01T04:20:56.445Z,12.20
2023-03-01T04:23:24.290Z,12.00
2023-03-01T04:25:58.034Z,12.15
2023-03-01T04:28:28.518Z,12.77
2023-03-01T04:30:57.664Z,12.20
2023-03-01T04:33:26.777Z,12.48
2023-03-01T04:35:54.289Z,11.55
2023-03-01T04:38:22.456Z,12.20
2023-03-01T04:40:50.088Z,11.32
2023-03-01T04:43:18.767Z,12.15
2023-03-01T04:45:46.229Z,11.70
2023-03-01T04:50:41.121Z,11.23
2023-03-01T04:53:08.650Z,12.32
2023-03-01T04:55:36.070Z,11.77
2023-03-01T05:00:30.650Z,11.60
2023-03-01T05:03:01.439Z,12.18
2023-03-01T05:05:32.368Z,11.02
2023-03-01T05:08:03.659Z,12.52
2023-03-01T05:10:33.158Z,11.35
2023-03-01T05:13:00.789Z,11.88
2023-03-01T05:15:29.958Z,12.10
2023-03-01T05:18:01.787Z,11.65
2023-03-01T05:20:31.599Z,12.20
2023-03-01T05:23:00.832Z,11.80
2023-03-01T05:25:34.174Z,11.60
2023-03-01T05:28:05.409Z,11.98
2023-03-01T05:30:35.419Z,12.00
2023-03-01T05:33:03.144Z,11.73
2023-03-01T05:35:33.722Z,11.77
2023-03-01T05:38:01.334Z,11.93
2023-03-01T05:42:58.251Z,11.38
2023-03-01T05:45:27.614Z,11.48
2023-03-01T05:47:56.151Z,11.60
2023-03-01T05:50:33.097Z,11.68
2023-03-01T05:53:10.470Z,11.40
2023-03-01T05:58:10.263Z,11.93
2023-03-01T06:00:38.061Z,11.73
2023-03-01T06:03:05.592Z,11.73
2023-03-01T06:05:33.385Z,11.52
2023-03-01T06:08:02.136Z,11.73
2023-03-01T06:10:30.091Z,11.25
2023-03-01T06:12:58.168Z,12.45
2023-03-01T06:15:26.632Z,12.20
2023-03-01T06:17:58.776Z,11.23
2023-03-01T06:20:29.037Z,11.48
2023-03-01T06:22:57.153Z,11.98
2023-03-01T06:25:26.870Z,11.27
2023-03-01T06:27:54.688Z,12.45
2023-03-01T06:30:24.057Z,11.63
2023-03-01T06:32:51.694Z,12.20
2023-03-01T06:35:20.085Z,12.45
2023-03-01T06:37:48.938Z,11.52
2023-03-01T06:40:17.317Z,11.38
2023-03-01T06:42:52.489Z,11.18
2023-03-01T06:45:21.947Z,10.82
2023-03-01T06:47:49.964Z,12.10
2023-03-01T06:50:18.608Z,11.80
2023-03-01T06:57:41.993Z,11.63
2023-03-01T07:00:10.167Z,10.88
2023-03-01T07:02:37.738Z,11.88
2023-03-01T07:05:05.706Z,11.70
2023-03-01T07:07:33.225Z,11.57
2023-03-01T07:10:02.947Z,11.38
2023-03-01T07:12:32.855Z,11.65
2023-03-01T07:17:27.562Z,10.48
2023-03-01T07:22:22.482Z,10.20
2023-03-01T07:24:50.064Z,9.48
2023-03-01T07:32:13.300Z,9.25
2023-03-01T07:34:41.488Z,9.75
2023-03-01T07:37:09.067Z,9.65
2023-03-01T07:49:27.584Z,9.57
2023-03-01T07:51:55.195Z,9.13
2023-03-01T07:54:22.957Z,9.32
2023-03-01T07:56:50.396Z,8.70
2023-03-01T08:01:45.090Z,9.07
2023-03-01T08:09:07.734Z,9.43
2023-03-01T08:11:35.147Z,9.10
2023-03-01T08:16:30.709Z,9.27
2023-03-01T08:19:01.776Z,9.30
2023-03-01T08:21:29.240Z,9.02
2023-03-01T08:26:23.810Z,8.73
2023-03-01T08:28:51.489Z,9.80
2023-03-01T08:31:23.299Z,9.07
2023-03-01T08:33:56.410Z,9.45
2023-03-01T08:36:26.721Z,8.52
2023-03-01T08:38:54.758Z,9.50
2023-03-01T08:41:22.729Z,8.63
2023-03-01T08:43:50.474Z,8.57
2023-03-01T08:46:18.071Z,8.23
2023-03-01T08:48:45.592Z,8.55
2023-03-01T08:51:16.366Z,8.68
2023-03-01T08:53:44.375Z,8.95
2023-03-01T08:56:12.379Z,8.80
2023-03-01T08:58:43.719Z,9.02
2023-03-01T09:01:12.785Z,9.45
2023-03-01T09:03:40.961Z,9.10
2023-03-01T09:06:09.004Z,10.13
2023-03-01T09:08:41.579Z,9.55
2023-03-01T09:11:12.901Z,9.52
2023-03-01T09:13:44.115Z,10.23
2023-03-01T09:16:14.394Z,9.40
2023-03-01T09:18:42.113Z,9.98
2023-03-01T09:21:16.207Z,12.15
2023-03-01T09:23:46.516Z,10.93
2023-03-01T09:26:23.159Z,12.18
2023-03-01T09:28:53.331Z,11.05
2023-03-01T09:31:22.907Z,11.20
2023-03-01T09:33:52.642Z,11.43
2023-03-01T09:36:23.009Z,8.90
2023-03-01T09:38:50.769Z,8.90
2023-03-01T09:41:48.568Z,8.73
2023-03-01T09:44:20.330Z,9.60
2023-03-01T09:46:48.497Z,8.80
2023-03-01T09:49:22.144Z,9.23
2023-03-01T09:51:57.357Z,9.77
2023-03-01T09:54:25.356Z,13.30
2023-03-01T09:57:29.692Z,11.77
2023-03-01T10:00:23.590Z,12.73
2023-03-01T10:03:00.985Z,11.80
2023-03-01T10:05:31.078Z,11.30
2023-03-01T10:08:20.388Z,10.40
2023-03-01T10:10:48.939Z,10.25
2023-03-01T10:13:38.124Z,10.32
2023-03-01T10:16:15.050Z,10.23
2023-03-01T10:18:54.889Z,9.25
2023-03-01T10:21:22.464Z,8.95
2023-03-01T10:26:48.465Z,9.30
2023-03-01T10:29:16.600Z,8.80
2023-03-01T10:31:54.214Z,9.35
2023-03-01T10:34:31.684Z,9.98
2023-03-01T10:37:10.154Z,9.20
2023-03-01T10:39:37.972Z,9.52
2023-03-01T10:42:20.112Z,9.45
2023-03-01T10:44:50.022Z,9.50
2023-03-01T10:47:24.425Z,9.63
2023-03-01T10:49:57.960Z,10.18
2023-03-01T10:52:33.254Z,9.27
2023-03-01T10:55:22.332Z,10.15
2023-03-01T10:57:49.929Z,10.93
2023-03-01T11:00:28.990Z,10.30
2023-03-01T11:02:59.435Z,9.82
2023-03-01T11:05:31.136Z,10.40
2023-03-01T11:08:01.466Z,12.95
2023-03-01T11:10:32.586Z,12.95
2023-03-01T11:13:26.364Z,11.88
2023-03-01T11:16:13.797Z,11.35
2023-03-01T11:18:47.950Z,11.05
2023-03-01T11:21:17.832Z,11.60
2023-03-01T11:23:47.953Z,11.55
2023-03-01T11:26:18.497Z,10.90
2023-03-01T11:28:53.344Z,12.40
2023-03-01T11:31:21.741Z,12.18
2023-03-01T11:34:01.176Z,11.93
2023-03-01T11:36:34.554Z,12.48
2023-03-01T11:39:28.901Z,11.65
2023-03-01T11:42:21.005Z,12.23
2023-03-01T11:44:53.773Z,12.45
2023-03-01T11:47:40.465Z,12.68
2023-03-01T11:50:32.789Z,12.32
2023-03-01T11:53:03.490Z,11.35
2023-03-01T11:56:09.841Z,12.02
2023-03-01T11:58:58.696Z,11.68
2023-03-01T12:01:54.305Z,10.98
2023-03-01T12:05:17.648Z,10.82
2023-03-01T12:08:02.184Z,10.52
2023-03-01T12:11:01.083Z,10.52
2023-03-01T12:14:05.584Z,10.60
2023-03-01T12:16:42.290Z,10.70
2023-03-01T12:19:21.653Z,10.80
2023-03-01T12:22:07.874Z,10.85
2023-03-01T12:24:53.968Z,10.27
2023-03-01T12:27:33.656Z,10.73
2023-03-01T12:30:27.379Z,10.60
2023-03-01T12:33:30.691Z,10.50
2023-03-01T12:36:11.607Z,11.30
2023-03-01T12:38:44.286Z,10.07
2023-03-01T12:41:42.314Z,9.98
2023-03-01T12:44:09.685Z,9.98
2023-03-01T12:46:53.806Z,8.80
2023-03-01T12:49:31.265Z,8.90
2023-03-01T12:52:25.670Z,9.35
2023-03-01T12:54:57.046Z,7.78
2023-03-01T12:57:38.001Z,8.90
2023-03-01T13:00:28.182Z,9.48
2023-03-01T13:03:19.472Z,8.57
2023-03-01T13:06:05.930Z,8.05
2023-03-01T13:08:34.236Z,8.20
2023-03-01T13:11:04.839Z,7.15
2023-03-01T13:13:32.792Z,7.20
2023-03-01T13:16:24.033Z,6.90
2023-03-01T13:19:07.923Z,6.63
2023-03-01T13:21:35.408Z,6.30
2023-03-01T13:26:30.652Z,6.43
2023-03-01T13:28:59.490Z,6.45
2023-03-01T13:31:27.020Z,6.35
2023-03-01T13:33:59.477Z,6.22
2023-03-01T13:36:30.660Z,5.55
2023-03-01T13:39:01.674Z,5.38
2023-03-01T13:41:44.536Z,5.70
2023-03-01T13:44:30.126Z,5.80
2023-03-01T13:47:00.156Z,6.40
2023-03-01T13:49:45.985Z,6.20
2023-03-01T13:52:47.613Z,5.45
2023-03-01T13:55:15.073Z,6.00
2023-03-01T13:57:47.749Z,6.20
2023-03-01T14:00:36.323Z,5.95
2023-03-01T14:03:10.547Z,5.70
2023-03-01T14:05:38.918Z,5.50
2023-03-01T14:08:18.550Z,5.65
2023-03-01T14:11:06.286Z,5.53
2023-03-01T14:13:57.431Z,5.60
2023-03-01T14:16:37.157Z,5.10
2023-03-01T14:19:32.555Z,5.15
2023-03-01T14:22:14.340Z,5.32
2023-03-01T14:24:48.726Z,5.78
2023-03-01T14:27:17.312Z,5.75
2023-03-01T14:29:54.538Z,5.40
2023-03-01T14:34:51.690Z,5.80
2023-03-01T14:37:20.987Z,5.45
2023-03-01T14:39:49.354Z,5.35
2023-03-01T14:42:17.418Z,5.70
2023-03-01T14:44:48.188Z,5.75
2023-03-01T14:47:20.993Z,6.15
2023-03-01T14:49:53.394Z,7.07
2023-03-01T14:52:38.367Z,7.07
2023-03-01T14:55:14.665Z,7.10
2023-03-01T14:57:44.902Z,7.45
2023-03-01T15:00:19.701Z,6.70
2023-03-01T15:02:49.918Z,7.40
2023-03-01T15:05:23.258Z,7.68
2023-03-01T15:07:52.261Z,7.50
2023-03-01T15:10:34.516Z,7.95
2023-03-01T15:13:22.518Z,7.68
2023-03-01T15:15:52.724Z,7.05
2023-03-01T15:18:24.917Z,7.55
2023-03-01T15:20:53.279Z,7.88
2023-03-01T15:23:28.080Z,7.75
2023-03-01T15:26:05.568Z,8.20
2023-03-01T15:28:49.809Z,8.10
2023-03-01T15:31:24.476Z,7.68
2023-03-01T15:33:53.276Z,8.18
2023-03-01T15:36:39.337Z,8.15
2023-03-01T15:39:07.348Z,9.10
2023-03-01T15:41:48.311Z,8.60
2023-03-01T15:44:27.912Z,9.07
2023-03-01T15:46:58.436Z,9.82
2023-03-01T15:49:54.428Z,9.45
2023-03-01T15:52:43.794Z,9.65
2023-03-01T15:55:24.511Z,10.48
2023-03-01T15:58:01.649Z,10.65
2023-03-01T16:00:30.297Z,9.65
2023-03-01T16:02:57.965Z,11.35
2023-03-01T16:05:35.399Z,10.07
2023-03-01T16:08:04.569Z,10.68
2023-03-01T16:10:32.590Z,11.95
2023-03-01T16:13:00.861Z,11.00
2023-03-01T16:15:33.055Z,10.77
2023-03-01T16:18:00.815Z,10.50
2023-03-01T16:23:04.831Z,10.25
2023-03-01T16:25:33.460Z,10.88
2023-03-01T16:28:05.110Z,9.98
2023-03-01T16:30:32.933Z,10.05
2023-03-01T16:33:00.363Z,10.32
2023-03-01T16:35:28.478Z,10.50
2023-03-01T16:37:56.087Z,10.23
2023-03-01T16:40:27.881Z,9.95
2023-03-01T16:43:00.524Z,9.35
2023-03-01T16:45:34.628Z,8.90
2023-03-01T16:48:03.803Z,8.93
2023-03-01T16:50:31.438Z,8.20
2023-03-01T16:52:58.944Z,8.93
2023-03-01T16:57:53.782Z,8.90
2023-03-01T17:02:49.953Z,7.85
2023-03-01T17:05:18.588Z,9.18
2023-03-01T17:07:46.133Z,8.25
2023-03-01T17:12:41.081Z,8.40
2023-03-01T17:17:36.198Z,8.23
2023-03-01T17:22:32.425Z,8.35
2023-03-01T17:29:54.642Z,9.00
2023-03-01T17:32:22.358Z,9.63
2023-03-01T17:34:49.988Z,8.95
2023-03-01T17:37:17.603Z,9.70
2023-03-01T17:39:45.100Z,8.95
2023-03-01T17:42:12.604Z,9.18
2023-03-01T17:47:10.885Z,9.60
2023-03-01T17:49:38.333Z,9.05
2023-03-01T17:54:33.626Z,9.68
2023-03-01T17:57:01.412Z,9.30
2023-03-01T17:59:33.647Z,9.25
2023-03-01T18:02:01.849Z,10.07
2023-03-01T18:04:30.189Z,10.32
2023-03-01T18:06:58.674Z,10.27
2023-03-01T18:09:27.666Z,10.40
2023-03-01T18:11:55.184Z,9.10
2023-03-01T18:19:17.610Z,8.65
2023-03-01T18:24:12.292Z,8.25
2023-03-01T18:29:08.395Z,8.43
2023-03-01T18:31:36.081Z,8.95
2023-03-01T18:34:03.577Z,9.20
2023-03-01T18:39:07.110Z,9.43
2023-03-01T18:41:36.709Z,9.70
2023-03-01T18:44:05.639Z,9.70
2023-03-01T18:46:36.243Z,10.65
2023-03-01T18:49:06.330Z,9.70
2023-03-01T18:51:35.677Z,10.70
2023-03-01T18:54:03.313Z,10.55
2023-03-01T18:59:04.114Z,9.85
2023-03-01T19:01:36.701Z,10.50
2023-03-01T19:04:05.438Z,9.77
2023-03-01T19:06:35.497Z,10.52
2023-03-01T19:09:03.684Z,10.30
2023-03-01T19:11:33.692Z,10.45
2023-03-01T19:14:02.584Z,9.77
2023-03-01T19:16:32.439Z,10.57
2023-03-01T19:19:01.884Z,10.23
2023-03-01T19:21:32.276Z,9.90
2023-03-01T19:24:02.421Z,10.73
2023-03-01T19:26:31.358Z,10.60
2023-03-01T19:28:59.570Z,11.10
2023-03-01T19:31:29.756Z,9.80
2023-03-01T19:34:11.436Z,10.32
2023-03-01T19:36:42.919Z,10.50
2023-03-01T19:39:13.735Z,10.38
2023-03-01T19:41:42.450Z,10.50
2023-03-01T19:44:10.197Z,9.88
2023-03-01T19:46:38.064Z,10.45
2023-03-01T19:49:05.813Z,9.55
2023-03-01T19:51:36.246Z,10.05
2023-03-01T19:54:06.239Z,9.95
2023-03-01T19:56:34.826Z,9.75
2023-03-01T19:59:04.607Z,9.60
2023-03-01T20:01:34.772Z,9.70
2023-03-01T20:04:04.087Z,9.20
2023-03-01T20:06:32.136Z,9.90
2023-03-01T20:09:08.973Z,10.20
2023-03-01T20:11:43.485Z,10.18
2023-03-01T20:14:12.393Z,9.00
2023-03-01T20:16:40.278Z,9.60
2023-03-01T20:19:08.313Z,10.35
2023-03-01T20:21:36.092Z,9.40
2023-03-01T20:24:03.541Z,10.48
2023-03-01T20:26:32.840Z,10.27
2023-03-01T20:29:00.554Z,9.35
2023-03-01T20:31:29.927Z,10.60
2023-03-01T20:33:58.888Z,10.63
2023-03-01T20:36:27.605Z,12.82
2023-03-01T20:38:55.254Z,14.68
2023-03-01T20:41:26.254Z,17.08
2023-03-01T20:43:56.451Z,15.90
2023-03-01T20:46:25.840Z,15.45
2023-03-01T20:48:54.339Z,15.13
2023-03-01T20:51:22.163Z,12.38
2023-03-01T20:53:49.880Z,13.10
2023-03-01T20:56:19.263Z,13.00
2023-03-01T20:59:08.274Z,12.07
2023-03-01T21:01:37.996Z,13.45
2023-03-01T21:04:06.047Z,12.25
2023-03-01T21:06:34.080Z,12.68
2023-03-01T21:09:01.911Z,12.30
2023-03-01T21:11:29.449Z,12.85
2023-03-01T21:16:24.738Z,13.07
2023-03-01T21:18:52.509Z,11.68
2023-03-01T21:21:22.732Z,10.85
2023-03-01T21:23:50.512Z,11.27
2023-03-01T21:26:20.696Z,11.65
2023-03-01T21:28:51.000Z,10.98
2023-03-01T21:31:22.399Z,12.02
2023-03-01T21:33:52.998Z,11.02
2023-03-01T21:36:22.494Z,10.98
2023-03-01T21:38:52.626Z,11.98
2023-03-01T21:41:29.231Z,11.48
2023-03-01T21:44:00.519Z,11.73
2023-03-01T21:46:31.013Z,11.63
2023-03-01T21:48:59.581Z,11.70
2023-03-01T21:51:27.869Z,11.82
2023-03-01T21:53:56.293Z,11.70
2023-03-01T21:56:26.477Z,11.85
2023-03-01T21:58:54.479Z,11.02
2023-03-01T22:01:25.857Z,11.48
2023-03-01T22:03:54.229Z,11.25
2023-03-01T22:06:31.156Z,11.93
2023-03-01T22:09:06.090Z,11.73
2023-03-01T22:11:39.654Z,12.27
2023-03-01T22:14:08.275Z,12.32
2023-03-01T22:16:37.545Z,12.23
2023-03-01T22:19:08.917Z,13.00
2023-03-01T22:21:40.657Z,12.63
2023-03-01T22:24:08.585Z,12.13
2023-03-01T22:26:41.931Z,14.07
2023-03-01T22:29:16.026Z,12.55
2023-03-01T22:31:43.994Z,13.25
2023-03-01T22:34:12.152Z,12.57
2023-03-01T22:36:39.711Z,13.77
2023-03-01T22:41:44.373Z,12.65
2023-03-01T22:44:17.905Z,11.85
2023-03-01T22:46:45.961Z,12.00
2023-03-01T22:49:16.673Z,12.68
2023-03-01T22:51:44.843Z,12.25
2023-03-01T22:54:12.298Z,12.48
2023-03-01T22:59:11.245Z,12.43
2023-03-01T23:01:40.742Z,12.45
2023-03-01T23:04:08.536Z,11.48
2023-03-01T23:06:50.233Z,11.52
2023-03-01T23:09:19.574Z,12.13
2023-03-01T23:11:47.164Z,11.25
2023-03-01T23:14:15.795Z,11.70
2023-03-01T23:16:43.275Z,10.43
2023-03-01T23:19:10.928Z,10.45
2023-03-01T23:21:38.501Z,10.73
2023-03-01T23:24:06.356Z,10.73
2023-03-01T23:26:34.052Z,9.65
2023-03-01T23:29:01.748Z,10.18
2023-03-01T23:31:30.258Z,9.00
2023-03-01T23:33:58.027Z,9.55
2023-03-01T23:36:28.646Z,9.30
2023-03-01T23:39:01.368Z,10.00
2023-03-01T23:41:31.007Z,9.57
2023-03-01T23:44:00.704Z,9.10
2023-03-01T23:46:31.212Z,8.63
2023-03-01T23:48:59.949Z,8.73
2023-03-01T23:51:27.437Z,8.32
2023-03-01T23:54:00.035Z,8.45
2023-03-01T23:56:36.501Z,9.38
2023-03-01T23:59:09.256Z,8.87
